National Weather Service United States Department of Commerce

 

Aviation Weather Center TAFs Radar Soundings/Model Data Soaring
NWS Wichita Home Page Hazardous Weather Outlook NWS Graphical Forecasts

 

Wichita (ICT)
Hutchinson (HUT)
Tactical Decision Aid
 
Tactical Decision Aid
 

 
000
FTUS43 KICT 250520
TAFICT
TAF
KICT 250520Z 2506/2606 04010KT P6SM BKN250
FM251900 04011KT P6SM VCSH OVC060
FM252100 06009KT P6SM -SN OVC035
FM252300 03009KT P6SM OVC050=
 
000
FTUS43 KICT 250520
TAFHUT
TAF
KHUT 250520Z 2506/2606 04010KT P6SM BKN250
FM251700 04011KT P6SM VCSH OVC080
FM251900 04011KT P6SM -SN OVC040
FM252300 04009KT P6SM OVC040=
Salina (SLN) Russell (RSL)
Tactical Decision Aid
Tactical Decision Aid

 
000
FTUS43 KICT 250520
TAFSLN
TAF
KSLN 250520Z 2506/2606 02010KT P6SM SCT120 BKN250
FM251500 04009KT P6SM OVC100=

 
000
FTUS43 KICT 250520
TAFRSL
TAF
KRSL 250520Z 2506/2606 04012G22KT P6SM BKN080
FM251200 06008KT P6SM VCSH SCT025 OVC050
FM251600 06009KT 5SM -SN BR OVC025
FM251700 06009KT 2SM -SN BR SCT012 OVC020
FM252200 05008KT P6SM VCSH OVC025
FM260300 06004KT P6SM BKN045=
Chanute (CNU) Great Bend (GBD)
Tactical Decision Aid
Tactical Decision Aid

 
000
FTUS43 KICT 250520
TAFCNU
TAF
KCNU 250520Z 2506/2606 02010KT P6SM SCT250
FM252200 03010KT P6SM BKN100=

 
000
FTUS43 KICT 250520
TAFGBD
TAF
KGBD 250520Z 2506/2606 06012KT P6SM SCT120 BKN200
FM251200 06008KT P6SM VCSH SCT025 OVC100
FM251500 06009KT P6SM VCSH OVC060
FM251700 06010KT 4SM -SN BR OVC025
FM251900 06010KT 1SM -SN BR OVC012
FM252300 05008KT P6SM VCSH OVC018
FM260100 05007KT P6SM OVC020=
 
NWS Wichita Aviation Forecast Discussion

 

 

IMPORTANT: This page is a tool to help pilots better visualize weather and weather-related hazards, and is not a substitute for a weather briefing obtained from a Flight Service Station (1-800-WXBRIEF). The information contained here does not meet the FAA requirements for a pre-flight weather brief. Therefore, it is important that pilots call and obtain a briefing from an FAA Flight Service Specialist.